sensor_id;sensor_type;location;lat;lon;timestamp;pressure;altitude;pressure_sealevel;temperature;humidity
55032;BME280;40928;51.076;7.950;2023-02-13T00:00:29;99067.91;;;4.85;100.00
55032;BME280;40928;51.076;7.950;2023-02-13T00:02:54;99057.63;;;4.82;100.00
55032;BME280;40928;51.076;7.950;2023-02-13T00:05:20;99066.09;;;4.85;100.00
55032;BME280;40928;51.076;7.950;2023-02-13T00:07:45;99066.09;;;4.85;100.00
55032;BME280;40928;51.076;7.950;2023-02-13T00:10:11;99064.56;;;4.83;100.00
55032;BME280;40928;51.076;7.950;2023-02-13T00:12:37;99058.53;;;4.72;100.00
55032;BME280;40928;51.076;7.950;2023-02-13T00:15:03;99056.84;;;4.71;100.00
55032;BME280;40928;51.076;7.950;2023-02-13T00:17:29;99056.63;;;4.65;100.00
55032;BME280;40928;51.076;7.950;2023-02-13T00:19:54;99051.22;;;4.66;100.00
55032;BME280;40928;51.076;7.950;2023-02-13T00:22:20;99046.56;;;4.68;100.00
55032;BME280;40928;51.076;7.950;2023-02-13T00:24:46;99047.13;;;4.72;100.00
55032;BME280;40928;51.076;7.950;2023-02-13T00:27:11;99055.75;;;4.74;100.00
55032;BME280;40928;51.076;7.950;2023-02-13T00:29:36;99048.91;;;4.71;100.00
55032;BME280;40928;51.076;7.950;2023-02-13T00:32:02;99046.03;;;4.65;100.00
55032;BME280;40928;51.076;7.950;2023-02-13T00:34:27;99054.50;;;4.68;100.00
55032;BME280;40928;51.076;7.950;2023-02-13T00:36:53;99048.22;;;4.69;100.00
55032;BME280;40928;51.076;7.950;2023-02-13T00:39:19;99042.94;;;4.69;100.00
55032;BME280;40928;51.076;7.950;2023-02-13T00:41:46;99050.44;;;4.74;100.00
55032;BME280;40928;51.076;7.950;2023-02-13T00:44:12;99039.31;;;4.70;100.00
55032;BME280;40928;51.076;7.950;2023-02-13T00:46:37;99049.91;;;4.70;100.00
55032;BME280;40928;51.076;7.950;2023-02-13T00:49:04;99038.63;;;4.68;100.00
55032;BME280;40928;51.076;7.950;2023-02-13T00:51:33;99047.81;;;4.74;100.00
55032;BME280;40928;51.076;7.950;2023-02-13T00:53:58;99042.34;;;4.76;100.00
55032;BME280;40928;51.076;7.950;2023-02-13T00:56:25;99046.91;;;4.65;100.00
55032;BME280;40928;51.076;7.950;2023-02-13T00:58:51;99042.81;;;4.71;100.00
55032;BME280;40928;51.076;7.950;2023-02-13T01:01:16;99041.97;;;4.70;100.00
55032;BME280;40928;51.076;7.950;2023-02-13T01:03:42;99042.81;;;4.71;100.00
55032;BME280;40928;51.076;7.950;2023-02-13T01:06:07;99043.09;;;4.68;100.00
55032;BME280;40928;51.076;7.950;2023-02-13T01:08:33;99046.22;;;4.63;100.00
55032;BME280;40928;51.076;7.950;2023-02-13T01:10:59;99037.41;;;4.63;100.00
55032;BME280;40928;51.076;7.950;2023-02-13T01:13:25;99036.59;;;4.62;100.00
55032;BME280;40928;51.076;7.950;2023-02-13T01:15:52;99032.97;;;4.63;100.00
55032;BME280;40928;51.076;7.950;2023-02-13T01:18:18;99031.16;;;4.64;100.00
55032;BME280;40928;51.076;7.950;2023-02-13T01:20:44;99033.28;;;4.60;100.00
55032;BME280;40928;51.076;7.950;2023-02-13T01:23:11;99026.59;;;4.56;100.00
55032;BME280;40928;51.076;7.950;2023-02-13T01:25:42;99025.78;;;4.55;100.00
55032;BME280;40928;51.076;7.950;2023-02-13T01:28:08;99028.56;;;4.54;100.00
55032;BME280;40928;51.076;7.950;2023-02-13T01:30:34;99026.25;;;4.51;100.00
55032;BME280;40928;51.076;7.950;2023-02-13T01:32:59;99039.03;;;4.55;100.00
55032;BME280;40928;51.076;7.950;2023-02-13T01:35:25;99029.94;;;4.58;100.00
55032;BME280;40928;51.076;7.950;2023-02-13T01:37:51;99027.97;;;4.60;100.00
55032;BME280;40928;51.076;7.950;2023-02-13T01:40:16;99024.34;;;4.61;100.00
55032;BME280;40928;51.076;7.950;2023-02-13T01:42:42;99025.16;;;4.62;100.00
55032;BME280;40928;51.076;7.950;2023-02-13T01:45:24;99025.03;;;4.63;100.00
55032;BME280;40928;51.076;7.950;2023-02-13T01:47:59;99024.19;;;4.63;100.00
55032;BME280;40928;51.076;7.950;2023-02-13T01:50:35;99010.16;;;4.62;100.00
55032;BME280;40928;51.076;7.950;2023-02-13T01:53:16;99013.59;;;4.63;100.00
55032;BME280;40928;51.076;7.950;2023-02-13T01:55:49;99017.09;;;4.63;100.00
55032;BME280;40928;51.076;7.950;2023-02-13T01:58:23;99005.97;;;4.60;100.00
55032;BME280;40928;51.076;7.950;2023-02-13T02:00:50;99012.78;;;4.62;100.00
55032;BME280;40928;51.076;7.950;2023-02-13T02:03:24;99009.97;;;4.64;100.00
55032;BME280;40928;51.076;7.950;2023-02-13T02:05:56;99009.84;;;4.65;100.00
55032;BME280;40928;51.076;7.950;2023-02-13T02:08:22;99013.47;;;4.64;100.00
55032;BME280;40928;51.076;7.950;2023-02-13T02:10:52;99016.13;;;4.64;100.00
55032;BME280;40928;51.076;7.950;2023-02-13T02:13:20;99008.88;;;4.66;100.00
55032;BME280;40928;51.076;7.950;2023-02-13T02:15:47;99007.19;;;4.65;100.00
55032;BME280;40928;51.076;7.950;2023-02-13T02:18:18;99012.31;;;4.67;100.00
55032;BME280;40928;51.076;7.950;2023-02-13T02:26:30;99022.38;;;4.63;100.00
55032;BME280;40928;51.076;7.950;2023-02-13T02:34:41;99015.91;;;4.57;100.00
55032;BME280;40928;51.076;7.950;2023-02-13T02:40:29;99016.56;;;4.41;100.00
55032;BME280;40928;51.076;7.950;2023-02-13T02:48:29;99014.88;;;4.40;100.00
55032;BME280;40928;51.076;7.950;2023-02-13T02:54:37;99008.66;;;4.32;100.00
55032;BME280;40928;51.076;7.950;2023-02-13T02:57:17;99008.66;;;4.32;100.00
55032;BME280;40928;51.076;7.950;2023-02-13T02:59:52;98998.66;;;4.35;100.00
55032;BME280;40928;51.076;7.950;2023-02-13T03:02:37;98997.34;;;4.39;100.00
55032;BME280;40928;51.076;7.950;2023-02-13T03:05:28;99002.88;;;4.46;100.00
55032;BME280;40928;51.076;7.950;2023-02-13T03:08:14;98996.75;;;4.46;100.00
55032;BME280;40928;51.076;7.950;2023-02-13T03:10:40;99002.72;;;4.48;100.00
55032;BME280;40928;51.076;7.950;2023-02-13T03:13:38;99000.22;;;4.46;100.00
55032;BME280;40928;51.076;7.950;2023-02-13T03:16:04;98996.59;;;4.47;100.00
55032;BME280;40928;51.076;7.950;2023-02-13T03:18:52;99001.81;;;4.39;100.00
55032;BME280;40928;51.076;7.950;2023-02-13T03:21:48;99005.06;;;4.33;100.00
55032;BME280;40928;51.076;7.950;2023-02-13T03:36:30;99018.59;;;4.48;100.00
55032;BME280;40928;51.076;7.950;2023-02-13T03:42:05;99025.41;;;4.50;100.00
55032;BME280;40928;51.076;7.950;2023-02-13T03:44:56;99030.53;;;4.52;100.00
55032;BME280;40928;51.076;7.950;2023-02-13T03:47:44;99026.59;;;4.56;100.00
55032;BME280;40928;51.076;7.950;2023-02-13T03:50:12;99023.16;;;4.55;100.00
55032;BME280;40928;51.076;7.950;2023-02-13T03:52:45;99027.59;;;4.55;100.00
55032;BME280;40928;51.076;7.950;2023-02-13T03:55:16;99029.41;;;4.54;100.00
55032;BME280;40928;51.076;7.950;2023-02-13T03:58:27;99031.91;;;4.56;100.00
55032;BME280;40928;51.076;7.950;2023-02-13T04:01:16;99025.78;;;4.55;100.00
55032;BME280;40928;51.076;7.950;2023-02-13T04:04:07;99018.66;;;4.56;100.00
55032;BME280;40928;51.076;7.950;2023-02-13T04:07:12;99027.88;;;4.52;100.00
55032;BME280;40928;51.076;7.950;2023-02-13T04:09:55;99034.47;;;4.48;100.00
55032;BME280;40928;51.076;7.950;2023-02-13T04:13:12;99033.50;;;4.49;100.00
55032;BME280;40928;51.076;7.950;2023-02-13T04:15:26;99035.16;;;4.50;100.00
55032;BME280;40928;51.076;7.950;2023-02-13T04:20:27;99038.63;;;4.50;100.00
55032;BME280;40928;51.076;7.950;2023-02-13T04:22:53;99038.63;;;4.50;100.00
55032;BME280;40928;51.076;7.950;2023-02-13T04:25:19;99035.97;;;4.50;100.00
55032;BME280;40928;51.076;7.950;2023-02-13T04:27:45;99042.13;;;4.51;100.00
55032;BME280;40928;51.076;7.950;2023-02-13T04:30:11;99042.94;;;4.51;100.00
55032;BME280;40928;51.076;7.950;2023-02-13T04:32:36;99044.78;;;4.51;100.00
55032;BME280;40928;51.076;7.950;2023-02-13T04:35:02;99037.50;;;4.53;100.00
55032;BME280;40928;51.076;7.950;2023-02-13T04:37:28;99034.31;;;4.49;100.00
55032;BME280;40928;51.076;7.950;2023-02-13T04:39:53;99041.13;;;4.52;100.00
55032;BME280;40928;51.076;7.950;2023-02-13T04:42:18;99034.94;;;4.43;100.00
55032;BME280;40928;51.076;7.950;2023-02-13T04:44:44;99036.56;;;4.44;100.00
55032;BME280;40928;51.076;7.950;2023-02-13T04:47:09;99030.28;;;4.45;100.00
55032;BME280;40928;51.076;7.950;2023-02-13T04:49:35;99025.84;;;4.46;100.00
55032;BME280;40928;51.076;7.950;2023-02-13T04:52:00;99027.53;;;4.47;100.00
55032;BME280;40928;51.076;7.950;2023-02-13T04:54:26;99021.25;;;4.48;100.00
55032;BME280;40928;51.076;7.950;2023-02-13T04:56:51;99018.59;;;4.48;100.00
55032;BME280;40928;51.076;7.950;2023-02-13T04:59:18;99014.66;;;4.52;100.00
55032;BME280;40928;51.076;7.950;2023-02-13T05:01:43;99015.34;;;4.54;100.00
55032;BME280;40928;51.076;7.950;2023-02-13T05:04:09;99014.53;;;4.53;100.00
55032;BME280;40928;51.076;7.950;2023-02-13T05:06:35;99013.38;;;4.56;100.00
55032;BME280;40928;51.076;7.950;2023-02-13T05:09:03;99015.72;;;4.59;100.00
55032;BME280;40928;51.076;7.950;2023-02-13T05:11:28;99014.38;;;4.55;100.00
55032;BME280;40928;51.076;7.950;2023-02-13T05:13:54;99017.00;;;4.55;100.00
55032;BME280;40928;51.076;7.950;2023-02-13T05:16:19;99014.38;;;4.55;100.00
55032;BME280;40928;51.076;7.950;2023-02-13T05:18:45;99008.09;;;4.56;100.00
55032;BME280;40928;51.076;7.950;2023-02-13T05:21:10;99001.00;;;4.56;100.00
55032;BME280;40928;51.076;7.950;2023-02-13T05:23:54;99013.38;;;4.56;100.00
55032;BME280;40928;51.076;7.950;2023-02-13T05:26:20;99008.47;;;4.43;100.00
55032;BME280;40928;51.076;7.950;2023-02-13T05:28:45;99008.03;;;4.48;100.00
55032;BME280;40928;51.076;7.950;2023-02-13T05:31:29;99010.38;;;4.51;100.00
55032;BME280;40928;51.076;7.950;2023-02-13T05:33:55;99006.72;;;4.52;100.00
55032;BME280;40928;51.076;7.950;2023-02-13T05:36:20;99009.75;;;4.57;100.00
55032;BME280;40928;51.076;7.950;2023-02-13T05:38:48;99014.06;;;4.58;100.00
55032;BME280;40928;51.076;7.950;2023-02-13T05:41:14;99008.78;;;4.58;100.00
55032;BME280;40928;51.076;7.950;2023-02-13T05:43:39;99011.25;;;4.60;100.00
55032;BME280;40928;51.076;7.950;2023-02-13T05:46:07;99006.81;;;4.60;100.00
55032;BME280;40928;51.076;7.950;2023-02-13T05:48:33;99011.13;;;4.61;100.00
55032;BME280;40928;51.076;7.950;2023-02-13T05:50:58;99011.13;;;4.61;100.00
55032;BME280;40928;51.076;7.950;2023-02-13T05:53:24;99013.09;;;4.59;100.00
55032;BME280;40928;51.076;7.950;2023-02-13T05:55:50;99008.78;;;4.58;100.00
55032;BME280;40928;51.076;7.950;2023-02-13T05:58:18;99011.41;;;4.58;100.00
55032;BME280;40928;51.076;7.950;2023-02-13T06:00:44;99012.28;;;4.59;100.00
55032;BME280;40928;51.076;7.950;2023-02-13T06:03:09;99008.94;;;4.56;100.00
55032;BME280;40928;51.076;7.950;2023-02-13T06:05:35;99009.91;;;4.55;100.00
55032;BME280;40928;51.076;7.950;2023-02-13T06:08:00;99009.63;;;4.59;100.00
55032;BME280;40928;51.076;7.950;2023-02-13T06:10:26;99010.28;;;4.61;100.00
55032;BME280;40928;51.076;7.950;2023-02-13T06:12:51;99011.25;;;4.60;100.00
55032;BME280;40928;51.076;7.950;2023-02-13T06:15:17;99012.09;;;4.60;100.00
55032;BME280;40928;51.076;7.950;2023-02-13T06:17:42;99014.91;;;4.59;100.00
55032;BME280;40928;51.076;7.950;2023-02-13T06:20:08;99003.66;;;4.56;100.00
55032;BME280;40928;51.076;7.950;2023-02-13T06:22:34;99010.38;;;4.51;100.00
55032;BME280;40928;51.076;7.950;2023-02-13T06:24:59;99006.06;;;4.50;100.00
55032;BME280;40928;51.076;7.950;2023-02-13T06:27:25;99003.72;;;4.47;100.00
55032;BME280;40928;51.076;7.950;2023-02-13T06:29:50;99005.84;;;4.43;100.00
55032;BME280;40928;51.076;7.950;2023-02-13T06:32:15;99008.47;;;4.43;100.00
55032;BME280;40928;51.076;7.950;2023-02-13T06:34:41;99013.59;;;4.45;100.00
55032;BME280;40928;51.076;7.950;2023-02-13T06:37:06;99010.81;;;4.46;100.00
55032;BME280;40928;51.076;7.950;2023-02-13T06:39:32;99010.97;;;4.45;100.00
55032;BME280;40928;51.076;7.950;2023-02-13T06:41:57;99012.75;;;4.44;100.00
55032;BME280;40928;51.076;7.950;2023-02-13T06:44:23;99010.28;;;4.42;100.00
55032;BME280;40928;51.076;7.950;2023-02-13T06:46:51;99017.53;;;4.40;100.00
55032;BME280;40928;51.076;7.950;2023-02-13T06:49:17;99011.25;;;4.41;100.00
55032;BME280;40928;51.076;7.950;2023-02-13T06:51:42;99006.81;;;4.42;100.00
55032;BME280;40928;51.076;7.950;2023-02-13T06:54:08;99013.78;;;4.43;100.00
55032;BME280;40928;51.076;7.950;2023-02-13T06:56:33;99012.63;;;4.46;100.00
55032;BME280;40928;51.076;7.950;2023-02-13T06:58:59;99013.31;;;4.48;100.00
55032;BME280;40928;51.076;7.950;2023-02-13T07:01:24;99011.94;;;4.44;100.00
55032;BME280;40928;51.076;7.950;2023-02-13T07:03:50;99011.25;;;4.41;100.00
55032;BME280;40928;51.076;7.950;2023-02-13T07:06:17;99014.19;;;4.38;100.00
55032;BME280;40928;51.076;7.950;2023-02-13T07:08:43;99019.25;;;4.32;100.00
55032;BME280;40928;51.076;7.950;2023-02-13T07:11:15;99022.34;;;4.27;100.00
55032;BME280;40928;51.076;7.950;2023-02-13T07:13:41;99015.00;;;4.21;100.00
55032;BME280;40928;51.076;7.950;2023-02-13T07:16:07;99026.03;;;4.16;100.00
55032;BME280;40928;51.076;7.950;2023-02-13T07:18:32;99020.75;;;4.16;100.00
55032;BME280;40928;51.076;7.950;2023-02-13T07:20:58;99023.38;;;4.16;100.00
55032;BME280;40928;51.076;7.950;2023-02-13T07:23:23;99026.03;;;4.16;100.00
55032;BME280;40928;51.076;7.950;2023-02-13T07:25:48;99030.50;;;4.16;100.00
55032;BME280;40928;51.076;7.950;2023-02-13T07:28:14;99035.09;;;4.14;100.00
55032;BME280;40928;51.076;7.950;2023-02-13T07:30:39;99030.53;;;4.06;100.00
55032;BME280;40928;51.076;7.950;2023-02-13T07:33:05;99032.22;;;4.07;100.00
55032;BME280;40928;51.076;7.950;2023-02-13T07:35:31;99041.94;;;4.06;100.00
55032;BME280;40928;51.076;7.950;2023-02-13T07:37:57;99034.44;;;4.02;100.00
55032;BME280;40928;51.076;7.950;2023-02-13T07:40:24;99047.53;;;4.03;100.00
55032;BME280;40928;51.076;7.950;2023-02-13T07:42:50;99046.13;;;4.09;100.00
55032;BME280;40928;51.076;7.950;2023-02-13T07:45:15;99041.38;;;4.13;100.00
55032;BME280;40928;51.076;7.950;2023-02-13T07:47:41;99032.75;;;4.10;100.00
55032;BME280;40928;51.076;7.950;2023-02-13T07:50:08;99046.66;;;4.13;100.00
55032;BME280;40928;51.076;7.950;2023-02-13T07:52:33;99045.50;;;4.15;100.00
55032;BME280;40928;51.076;7.950;2023-02-13T07:55:01;99043.44;;;4.19;100.00
55032;BME280;40928;51.076;7.950;2023-02-13T07:57:26;99035.88;;;4.24;100.00
55032;BME280;40928;51.076;7.950;2023-02-13T07:59:52;99042.53;;;4.28;100.00
55032;BME280;40928;51.076;7.950;2023-02-13T08:02:17;99042.06;;;4.33;100.00
55032;BME280;40928;51.076;7.950;2023-02-13T08:04:43;99041.25;;;4.32;100.00
55032;BME280;40928;51.076;7.950;2023-02-13T08:07:17;99042.31;;;4.39;100.00
55032;BME280;40928;51.076;7.950;2023-02-13T08:09:44;99040.53;;;4.40;100.00
55032;BME280;40928;51.076;7.950;2023-02-13T08:12:28;99043.63;;;4.53;100.00
55032;BME280;40928;51.076;7.950;2023-02-13T08:14:54;99042.47;;;4.56;100.00
55032;BME280;40928;51.076;7.950;2023-02-13T08:17:20;99039.25;;;4.62;100.00
55032;BME280;40928;51.076;7.950;2023-02-13T08:19:45;99043.41;;;4.65;100.00
55032;BME280;40928;51.076;7.950;2023-02-13T08:22:11;99045.06;;;4.66;100.00
55032;BME280;40928;51.076;7.950;2023-02-13T08:24:36;99041.28;;;4.68;100.00
55032;BME280;40928;51.076;7.950;2023-02-13T08:27:02;99039.53;;;4.77;100.00
55032;BME280;40928;51.076;7.950;2023-02-13T08:29:27;99044.06;;;4.85;100.00
55032;BME280;40928;51.076;7.950;2023-02-13T08:31:53;99054.75;;;4.93;100.00
55032;BME280;40928;51.076;7.950;2023-02-13T08:34:18;99047.56;;;5.03;100.00
55032;BME280;40928;51.076;7.950;2023-02-13T08:36:44;99038.16;;;5.09;100.00
55032;BME280;40928;51.076;7.950;2023-02-13T08:39:09;99049.34;;;5.21;100.00
55032;BME280;40928;51.076;7.950;2023-02-13T08:41:35;99043.78;;;5.32;100.00
55032;BME280;40928;51.076;7.950;2023-02-13T08:44:01;99044.97;;;5.38;100.00
55032;BME280;40928;51.076;7.950;2023-02-13T08:46:26;99050.34;;;5.46;100.00
55032;BME280;40928;51.076;7.950;2023-02-13T08:48:52;99054.41;;;5.59;100.00
55032;BME280;40928;51.076;7.950;2023-02-13T08:51:17;99047.63;;;5.64;100.00
55032;BME280;40928;51.076;7.950;2023-02-13T08:53:43;99052.53;;;5.77;100.00
55032;BME280;40928;51.076;7.950;2023-02-13T08:56:09;99055.75;;;5.98;100.00
55032;BME280;40928;51.076;7.950;2023-02-13T08:58:35;99048.09;;;6.13;100.00
55032;BME280;40928;51.076;7.950;2023-02-13T09:01:03;99045.81;;;6.26;100.00
55032;BME280;40928;51.076;7.950;2023-02-13T09:03:29;99048.66;;;6.41;100.00
55032;BME280;40928;51.076;7.950;2023-02-13T09:05:58;99045.22;;;6.57;100.00
55032;BME280;40928;51.076;7.950;2023-02-13T09:08:24;99045.25;;;6.82;100.00
55032;BME280;40928;51.076;7.950;2023-02-13T09:10:55;99041.13;;;6.96;100.00
55032;BME280;40928;51.076;7.950;2023-02-13T09:13:21;99040.63;;;7.17;100.00
55032;BME280;40928;51.076;7.950;2023-02-13T09:15:46;99040.75;;;7.40;100.00
55032;BME280;40928;51.076;7.950;2023-02-13T09:18:12;99036.03;;;7.67;100.00
55032;BME280;40928;51.076;7.950;2023-02-13T09:20:37;99043.31;;;7.90;100.00
55032;BME280;40928;51.076;7.950;2023-02-13T09:23:03;99032.94;;;8.03;100.00
55032;BME280;40928;51.076;7.950;2023-02-13T09:25:28;99041.19;;;8.17;100.00
55032;BME280;40928;51.076;7.950;2023-02-13T09:27:54;99039.91;;;8.44;100.00
55032;BME280;40928;51.076;7.950;2023-02-13T09:30:19;99025.69;;;8.83;100.00
55032;BME280;40928;51.076;7.950;2023-02-13T09:32:49;99032.97;;;8.66;100.00
55032;BME280;40928;51.076;7.950;2023-02-13T09:35:15;99038.34;;;8.58;100.00
55032;BME280;40928;51.076;7.950;2023-02-13T09:37:40;99032.78;;;8.68;100.00
55032;BME280;40928;51.076;7.950;2023-02-13T09:40:16;99025.78;;;9.13;99.93
55032;BME280;40928;51.076;7.950;2023-02-13T09:42:43;99031.47;;;9.34;95.37
55032;BME280;40928;51.076;7.950;2023-02-13T09:45:11;99037.50;;;9.42;95.61
55032;BME280;40928;51.076;7.950;2023-02-13T09:47:42;99029.09;;;9.84;91.98
55032;BME280;40928;51.076;7.950;2023-02-13T09:50:20;99036.63;;;9.95;90.20
55032;BME280;40928;51.076;7.950;2023-02-13T09:52:48;99036.94;;;10.37;88.44
55032;BME280;40928;51.076;7.950;2023-02-13T09:58:05;99041.31;;;11.82;84.38
55032;BME280;40928;51.076;7.950;2023-02-13T10:00:36;99051.25;;;12.23;81.20
55032;BME280;40928;51.076;7.950;2023-02-13T10:03:14;99048.75;;;12.90;78.00
55032;BME280;40928;51.076;7.950;2023-02-13T10:14:22;99043.97;;;14.91;65.85
55032;BME280;40928;51.076;7.950;2023-02-13T10:17:05;99037.28;;;15.00;63.77
55032;BME280;40928;51.076;7.950;2023-02-13T10:19:40;99046.81;;;14.96;60.43
55032;BME280;40928;51.076;7.950;2023-02-13T10:22:17;99050.31;;;15.03;57.38
55032;BME280;40928;51.076;7.950;2023-02-13T10:24:47;99050.09;;;15.30;56.20
55032;BME280;40928;51.076;7.950;2023-02-13T10:27:43;99043.00;;;14.33;58.13
55032;BME280;40928;51.076;7.950;2023-02-13T10:36:02;99042.69;;;15.51;54.88
55032;BME280;40928;51.076;7.950;2023-02-13T10:38:31;99039.44;;;15.42;54.22
55032;BME280;40928;51.076;7.950;2023-02-13T10:41:05;99043.81;;;15.87;52.37
55032;BME280;40928;51.076;7.950;2023-02-13T10:43:46;99042.63;;;16.02;51.44
55032;BME280;40928;51.076;7.950;2023-02-13T10:46:33;99037.59;;;15.87;49.98
55032;BME280;40928;51.076;7.950;2023-02-13T10:51:52;99044.03;;;16.23;49.83
55032;BME280;40928;51.076;7.950;2023-02-13T10:54:27;99044.13;;;16.96;48.32
55032;BME280;40928;51.076;7.950;2023-02-13T10:59:48;99034.16;;;18.27;44.75
55032;BME280;40928;51.076;7.950;2023-02-13T11:04:43;99022.06;;;18.59;42.40
55032;BME280;40928;51.076;7.950;2023-02-13T11:07:14;99027.50;;;18.76;40.13
55032;BME280;40928;51.076;7.950;2023-02-13T11:09:44;99023.31;;;19.14;41.26
55032;BME280;40928;51.076;7.950;2023-02-13T11:12:28;99019.91;;;19.58;40.26
55032;BME280;40928;51.076;7.950;2023-02-13T11:14:57;99010.16;;;20.18;38.12
55032;BME280;40928;51.076;7.950;2023-02-13T11:17:24;99014.50;;;19.41;38.26
55032;BME280;40928;51.076;7.950;2023-02-13T11:19:56;99015.34;;;19.81;38.73
55032;BME280;40928;51.076;7.950;2023-02-13T11:25:03;99016.44;;;20.74;35.92
55032;BME280;40928;51.076;7.950;2023-02-13T11:27:35;99007.78;;;21.04;34.71
55032;BME280;40928;51.076;7.950;2023-02-13T11:30:10;99007.59;;;21.49;34.38
55032;BME280;40928;51.076;7.950;2023-02-13T11:33:08;99008.19;;;22.09;34.71
55032;BME280;40928;51.076;7.950;2023-02-13T11:35:44;98998.59;;;21.96;34.21
55032;BME280;40928;51.076;7.950;2023-02-13T11:40:48;98992.59;;;22.99;32.80
55032;BME280;40928;51.076;7.950;2023-02-13T11:43:34;98989.78;;;22.32;31.17
55032;BME280;40928;51.076;7.950;2023-02-13T11:46:02;98984.03;;;22.28;33.39
55032;BME280;40928;51.076;7.950;2023-02-13T11:48:30;98985.66;;;22.19;32.89
55032;BME280;40928;51.076;7.950;2023-02-13T11:50:56;98984.09;;;22.44;32.61
55032;BME280;40928;51.076;7.950;2023-02-13T11:53:24;98975.97;;;23.06;32.05
55032;BME280;40928;51.076;7.950;2023-02-13T11:56:11;98980.59;;;22.54;31.98
55032;BME280;40928;51.076;7.950;2023-02-13T11:58:38;98976.81;;;22.91;32.68
55032;BME280;40928;51.076;7.950;2023-02-13T12:06:22;98974.63;;;23.29;31.24
55032;BME280;40928;51.076;7.950;2023-02-13T12:08:48;98970.94;;;22.10;32.02
55032;BME280;40928;51.076;7.950;2023-02-13T12:11:27;98970.78;;;22.42;33.13
55032;BME280;40928;51.076;7.950;2023-02-13T12:13:58;98959.50;;;22.13;32.35
55032;BME280;40928;51.076;7.950;2023-02-13T12:16:42;98953.28;;;22.17;33.01
55032;BME280;40928;51.076;7.950;2023-02-13T12:19:24;98966.72;;;22.76;31.98
55032;BME280;40928;51.076;7.950;2023-02-13T12:21:59;98959.94;;;22.78;32.02
55032;BME280;40928;51.076;7.950;2023-02-13T12:38:06;98939.66;;;23.72;30.40
55032;BME280;40928;51.076;7.950;2023-02-13T12:41:11;98943.00;;;24.14;29.74
55032;BME280;40928;51.076;7.950;2023-02-13T12:46:49;98931.31;;;23.07;31.12
55032;BME280;40928;51.076;7.950;2023-02-13T13:06:25;98906.81;;;22.65;32.12
55032;BME280;40928;51.076;7.950;2023-02-13T13:09:04;98911.47;;;22.65;31.90
55032;BME280;40928;51.076;7.950;2023-02-13T13:20:02;98892.97;;;21.67;32.14
55032;BME280;40928;51.076;7.950;2023-02-13T13:22:37;98880.63;;;22.33;31.06
55032;BME280;40928;51.076;7.950;2023-02-13T13:27:46;98895.13;;;22.65;31.41
55032;BME280;40928;51.076;7.950;2023-02-13T13:30:29;98896.50;;;22.57;30.69
55032;BME280;40928;51.076;7.950;2023-02-13T13:33:00;98884.97;;;22.14;31.18
55032;BME280;40928;51.076;7.950;2023-02-13T13:35:27;98881.22;;;22.46;31.31
55032;BME280;40928;51.076;7.950;2023-02-13T13:38:06;98884.75;;;22.51;31.01
55032;BME280;40928;51.076;7.950;2023-02-13T13:51:44;98869.47;;;22.97;31.04
55032;BME280;40928;51.076;7.950;2023-02-13T14:07:42;98859.22;;;24.15;28.72
55032;BME280;40928;51.076;7.950;2023-02-13T14:13:03;98866.00;;;22.71;30.05
55032;BME280;40928;51.076;7.950;2023-02-13T14:26:08;98857.84;;;21.02;33.86
55032;BME280;40928;51.076;7.950;2023-02-13T14:28:34;98859.22;;;21.58;33.19
55032;BME280;40928;51.076;7.950;2023-02-13T14:31:06;98865.03;;;21.82;32.64
55032;BME280;40928;51.076;7.950;2023-02-13T14:33:34;98861.22;;;21.78;31.67
55032;BME280;40928;51.076;7.950;2023-02-13T14:36:01;98863.75;;;22.31;31.56
55032;BME280;40928;51.076;7.950;2023-02-13T14:38:27;98866.53;;;22.47;31.36
55032;BME280;40928;51.076;7.950;2023-02-13T14:40:53;98873.56;;;22.94;30.76
55032;BME280;40928;51.076;7.950;2023-02-13T14:45:52;98863.63;;;25.34;27.05
55032;BME280;40928;51.076;7.950;2023-02-13T14:48:21;98857.81;;;24.57;27.71
55032;BME280;40928;51.076;7.950;2023-02-13T14:50:51;98849.50;;;24.73;27.69
55032;BME280;40928;51.076;7.950;2023-02-13T14:53:25;98858.63;;;24.23;27.59
55032;BME280;40928;51.076;7.950;2023-02-13T14:56:15;98859.47;;;23.74;28.19
55032;BME280;40928;51.076;7.950;2023-02-13T15:01:31;98849.38;;;22.77;30.06
55032;BME280;40928;51.076;7.950;2023-02-13T15:04:04;98848.59;;;20.60;32.63
55032;BME280;40928;51.076;7.950;2023-02-13T15:06:35;98840.75;;;18.76;36.40
55032;BME280;40928;51.076;7.950;2023-02-13T15:09:06;98843.13;;;17.63;38.95
55032;BME280;40928;51.076;7.950;2023-02-13T15:11:41;98842.63;;;16.42;41.99
55032;BME280;40928;51.076;7.950;2023-02-13T15:16:42;98833.06;;;16.04;43.41
55032;BME280;40928;51.076;7.950;2023-02-13T15:19:14;98835.81;;;15.29;45.12
55032;BME280;40928;51.076;7.950;2023-02-13T15:21:53;98818.25;;;15.08;46.11
55032;BME280;40928;51.076;7.950;2023-02-13T15:24:21;98827.22;;;14.58;46.88
55032;BME280;40928;51.076;7.950;2023-02-13T15:27:04;98830.13;;;14.31;48.45
55032;BME280;40928;51.076;7.950;2023-02-13T15:29:30;98817.91;;;14.03;49.43
55032;BME280;40928;51.076;7.950;2023-02-13T15:31:57;98825.88;;;13.84;50.29
55032;BME280;40928;51.076;7.950;2023-02-13T15:34:31;98827.38;;;13.74;51.00
55032;BME280;40928;51.076;7.950;2023-02-13T15:36:59;98823.16;;;13.52;52.33
55032;BME280;40928;51.076;7.950;2023-02-13T15:39:27;98823.81;;;13.41;53.21
55032;BME280;40928;51.076;7.950;2023-02-13T15:41:56;98819.69;;;13.32;53.57
55032;BME280;40928;51.076;7.950;2023-02-13T15:44:32;98827.19;;;13.09;54.43
55032;BME280;40928;51.076;7.950;2023-02-13T15:47:04;98825.13;;;13.12;54.65
55032;BME280;40928;51.076;7.950;2023-02-13T15:49:37;98825.97;;;12.99;55.62
55032;BME280;40928;51.076;7.950;2023-02-13T15:52:31;98823.97;;;12.81;56.90
55032;BME280;40928;51.076;7.950;2023-02-13T15:54:59;98823.16;;;12.60;57.38
55032;BME280;40928;51.076;7.950;2023-02-13T15:57:25;98828.53;;;12.46;58.55
55032;BME280;40928;51.076;7.950;2023-02-13T15:59:53;98824.19;;;12.25;60.19
55032;BME280;40928;51.076;7.950;2023-02-13T16:02:28;98823.34;;;12.05;60.83